Time;durP1;ratioP1;P1;durP2;ratioP2;P2;SDS_P1;SDS_P2;PMS_P1;PMS_P2;Temp;Humidity;BMP_temperature;BMP_pressure;BME280_temperature;BME280_humidity;BME280_pressure;Samples;Min_cycle;Max_cycle;Signal;HPM_P1;HPM_P2
2022/04/07 00:04:08;;;;;;;11.07;6.50;;;;;;;13.27;45.10;98347.53;7737957;32;40160;-72
2022/04/07 00:08:24;;;;;;;12.60;6.90;;;;;;;13.21;45.64;98352.38;7712249;32;39643;-70
2022/04/07 00:12:42;;;;;;;11.12;6.53;;;;;;;13.15;45.65;98345.44;7711482;32;37538;-71
2022/04/07 00:16:59;;;;;;;9.82;6.22;;;;;;;13.30;45.45;98333.19;7712211;32;36793;-71
2022/04/07 00:21:24;;;;;;;10.38;6.03;;;;;;;13.09;45.39;98336.59;7712086;32;39319;-70
2022/04/07 00:25:41;;;;;;;16.65;6.78;;;;;;;12.99;45.85;98336.09;7712027;32;40860;-70
2022/04/07 00:29:57;;;;;;;12.73;6.60;;;;;;;12.88;46.26;98327.44;7711922;32;38628;-70
2022/04/07 00:34:13;;;;;;;11.10;6.80;;;;;;;12.95;46.19;98322.28;7713408;32;37900;-71
2022/04/07 00:38:29;;;;;;;12.02;6.65;;;;;;;12.56;47.19;98316.66;7738395;32;39353;-70
2022/04/07 00:42:47;;;;;;;14.07;6.15;;;;;;;12.66;46.67;98312.81;7737943;32;40792;-71
2022/04/07 00:47:04;;;;;;;9.82;6.00;;;;;;;12.61;46.79;98312.97;7737064;32;37678;-70
2022/04/07 00:51:20;;;;;;;12.73;5.28;;;;;;;12.80;45.76;98320.84;7738566;32;37671;-70
2022/04/07 00:55:36;;;;;;;10.00;5.87;;;;;;;13.01;53.70;98323.72;7737245;32;38972;-70
2022/04/07 00:59:53;;;;;;;10.68;5.32;;;;;;;12.84;45.58;98315.53;7737515;32;40738;-70
2022/04/07 01:04:09;;;;;;;10.10;5.53;;;;;;;13.02;44.12;98305.38;7736329;32;38627;-71
2022/04/07 01:08:26;;;;;;;9.13;5.75;;;;;;;12.86;44.26;98307.81;7711552;32;37103;-70
2022/04/07 01:12:42;;;;;;;9.70;5.37;;;;;;;12.92;44.02;98299.13;7711411;32;39322;-70
2022/04/07 01:16:58;;;;;;;11.98;5.37;;;;;;;12.80;44.12;98303.63;7711458;32;40860;-70
2022/04/07 01:21:16;;;;;;;10.15;5.43;;;;;;;12.99;43.64;98290.44;7711406;32;37589;-71
2022/04/07 01:25:33;;;;;;;9.48;5.75;;;;;;;12.69;44.61;98287.53;7711380;32;36144;-70
2022/04/07 01:29:49;;;;;;;9.82;5.15;;;;;;;12.60;44.67;98292.22;7711311;32;40062;-71
2022/04/07 01:34:09;;;;;;;10.52;5.50;;;;;;;12.76;44.18;98287.06;7712624;32;40713;-70
2022/04/07 01:38:26;;;;;;;9.02;5.22;;;;;;;12.54;45.17;98279.84;7737692;32;38728;-70
2022/04/07 01:42:42;;;;;;;8.63;4.85;;;;;;;12.40;44.53;98266.34;7736449;32;37133;-70
2022/04/07 01:46:58;;;;;;;7.28;4.53;;;;;;;12.63;43.26;98260.72;7737959;32;39055;-70
2022/04/07 01:51:15;;;;;;;7.40;4.15;;;;;;;12.73;42.22;98252.97;7737748;32;40816;-70
2022/04/07 01:55:32;;;;;;;9.25;4.50;;;;;;;12.69;41.92;98249.25;7736468;32;38004;-71
2022/04/07 01:59:48;;;;;;;7.25;4.47;;;;;;;12.75;42.26;98238.97;7736548;32;37130;-70
2022/04/07 02:04:05;;;;;;;8.68;4.22;;;;;;;12.80;42.28;98233.34;7735249;32;39385;-70
2022/04/07 02:08:21;;;;;;;7.62;4.20;;;;;;;12.84;42.78;98226.09;7710629;32;40886;-70
2022/04/07 02:12:41;;;;;;;8.82;4.45;;;;;;;12.64;43.46;98208.44;7710106;32;38026;-71
2022/04/07 02:16:57;;;;;;;6.20;4.10;;;;;;;12.65;42.28;98201.84;7710675;32;38057;-71
2022/04/07 02:21:13;;;;;;;9.10;4.25;;;;;;;12.73;42.61;98184.63;7710614;32;39385;-70
2022/04/07 02:25:29;;;;;;;7.70;4.53;;;;;;;12.59;42.72;98194.94;7710349;32;39939;-71
2022/04/07 02:29:46;;;;;;;9.18;3.95;;;;;;;12.84;41.80;98192.47;7710295;32;37980;-70
2022/04/07 02:34:02;;;;;;;7.12;3.65;;;;;;;12.93;41.14;98188.56;7712185;32;37844;-70
2022/04/07 02:38:18;;;;;;;8.15;3.95;;;;;;;12.93;41.19;98183.09;7710338;32;38765;-68
2022/04/07 02:42:35;;;;;;;8.23;4.30;;;;;;;12.65;42.55;98179.97;7710062;32;40851;-70
2022/04/07 02:46:51;;;;;;;7.20;4.22;;;;;;;12.40;43.19;98181.63;7709911;32;37831;-69
2022/04/07 02:51:07;;;;;;;7.18;4.30;;;;;;;12.55;41.80;98181.09;7709917;32;37207;-70
2022/04/07 02:55:24;;;;;;;11.05;5.15;;;;;;;12.52;42.43;98178.22;7709709;32;40220;-70
2022/04/07 02:59:40;;;;;;;9.68;4.10;;;;;;;12.71;42.41;98191.53;7709610;32;40107;-70
2022/04/07 03:03:56;;;;;;;9.18;4.32;;;;;;;12.74;42.42;98177.22;7710970;32;37594;-70
2022/04/07 03:08:12;;;;;;;7.75;4.28;;;;;;;12.40;43.91;98160.56;7721731;32;36786;-70
2022/04/07 03:12:29;;;;;;;9.30;4.30;;;;;;;12.38;43.84;98148.31;7709107;32;39419;-70
2022/04/07 03:16:48;;;;;;;7.65;4.15;;;;;;;12.47;42.82;98142.84;7709263;32;40766;-70
2022/04/07 03:21:05;;;;;;;7.43;4.35;;;;;;;12.11;44.49;98135.84;7709521;32;38244;-70
2022/04/07 03:25:21;;;;;;;7.10;4.30;;;;;;;12.20;44.45;98133.91;7713166;32;36599;-71
2022/04/07 03:29:37;;;;;;;9.68;4.85;;;;;;;12.05;45.15;98153.50;7712803;32;39554;-70
2022/04/07 03:33:53;;;;;;;8.30;4.25;;;;;;;11.84;46.28;98162.28;7714436;32;40745;-72
2022/04/07 03:38:09;;;;;;;9.45;4.10;;;;;;;11.84;45.97;98154.09;7739134;32;38582;-71
2022/04/07 03:42:25;;;;;;;7.43;4.22;;;;;;;11.72;46.30;98143.00;7739252;32;38014;-71
2022/04/07 03:46:41;;;;;;;8.43;4.60;;;;;;;11.60;46.69;98135.44;7739353;32;39387;-71
2022/04/07 03:50:57;;;;;;;6.37;4.07;;;;;;;11.47;47.26;98145.38;7739212;32;40015;-70
2022/04/07 03:55:13;;;;;;;8.85;4.43;;;;;;;11.58;47.00;98145.88;7737978;32;37853;-70
2022/04/07 03:59:33;;;;;;;7.15;4.47;;;;;;;11.68;46.72;98133.87;7739051;32;37191;-70
2022/04/07 04:03:49;;;;;;;11.05;4.60;;;;;;;11.61;47.01;98129.66;7736967;32;39239;-71
2022/04/07 04:08:06;;;;;;;8.48;4.25;;;;;;;11.47;47.71;98129.03;7712218;32;40031;-70
2022/04/07 04:12:22;;;;;;;7.75;4.57;;;;;;;11.45;47.92;98123.88;7711905;32;37910;-69
2022/04/07 04:16:38;;;;;;;7.90;4.62;;;;;;;11.36;48.17;98114.84;7712270;32;37282;-70
2022/04/07 04:20:54;;;;;;;8.65;4.45;;;;;;;11.11;49.68;98126.50;7712111;32;39814;-70
2022/04/07 04:25:10;;;;;;;9.70;4.53;;;;;;;11.11;49.38;98129.22;7711931;32;40571;-70
2022/04/07 04:29:26;;;;;;;7.57;4.30;;;;;;;11.08;49.34;98123.28;7711994;32;38470;-70
2022/04/07 04:33:42;;;;;;;9.90;4.57;;;;;;;11.19;48.88;98134.72;7712751;32;37660;-70
2022/04/07 04:37:59;;;;;;;7.95;4.20;;;;;;;11.17;49.46;98122.50;7711904;32;40150;-70
2022/04/07 04:42:15;;;;;;;9.45;4.35;;;;;;;11.08;49.48;98117.81;7711972;32;41008;-70
2022/04/07 04:46:31;;;;;;;8.20;4.30;;;;;;;11.31;49.03;98108.75;7711701;32;37838;-71
2022/04/07 04:50:47;;;;;;;8.80;4.28;;;;;;;11.28;48.33;98116.44;7711772;32;37103;-70
2022/04/07 04:55:05;;;;;;;7.70;4.43;;;;;;;11.19;49.43;98123.81;7711768;32;40074;-70
2022/04/07 04:59:22;;;;;;;8.00;4.55;;;;;;;11.31;48.68;98125.13;7719298;32;39935;-70
2022/04/07 05:03:38;;;;;;;11.30;4.72;;;;;;;11.11;49.51;98119.13;7736096;32;39466;-70
2022/04/07 05:07:54;;;;;;;8.98;4.78;;;;;;;10.93;50.50;98117.44;7711628;32;37993;-70
2022/04/07 05:12:10;;;;;;;7.37;4.62;;;;;;;11.14;50.05;98118.50;7711604;32;39270;-70
2022/04/07 05:16:26;;;;;;;7.65;4.22;;;;;;;11.24;49.51;98123.63;7711584;32;40542;-70
2022/04/07 05:20:42;;;;;;;8.40;4.80;;;;;;;11.19;50.05;98123.81;7711357;32;37540;-70
2022/04/07 05:24:58;;;;;;;14.40;4.87;;;;;;;11.31;49.74;98115.00;7711409;32;36875;-70
2022/04/07 05:29:14;;;;;;;11.65;4.97;;;;;;;11.21;50.96;98115.28;7711365;32;39011;-70
2022/04/07 05:33:30;;;;;;;9.20;4.55;;;;;;;11.20;50.49;98108.25;7711896;32;40905;-70
2022/04/07 05:37:47;;;;;;;10.38;4.82;;;;;;;11.41;50.47;98108.44;7711087;32;38688;-70
2022/04/07 05:42:03;;;;;;;12.20;4.50;;;;;;;11.53;50.21;98116.00;7711099;32;37343;-69
2022/04/07 05:46:19;;;;;;;11.45;4.97;;;;;;;11.49;51.69;98115.84;7710375;32;39301;-70
2022/04/07 05:50:36;;;;;;;8.55;4.22;;;;;;;11.56;51.29;98118.13;7711031;32;40727;-71
2022/04/07 05:54:52;;;;;;;12.13;4.80;;;;;;;11.76;48.67;98124.88;7710929;32;38353;-70
2022/04/07 05:59:08;;;;;;;6.65;4.07;;;;;;;11.75;51.01;98139.66;7720243;32;37647;-69
2022/04/07 06:03:24;;;;;;;5.70;3.90;;;;;;;12.12;50.56;98126.50;7713872;32;39868;-70
2022/04/07 06:07:40;;;;;;;8.50;4.28;;;;;;;12.23;48.79;98133.25;7711097;32;40117;-70
2022/04/07 06:11:57;;;;;;;10.70;4.43;;;;;;;11.84;50.53;98151.38;7710399;32;38602;-70
2022/04/07 06:16:13;;;;;;;9.85;4.43;;;;;;;12.09;49.87;98138.06;7710525;32;37282;-72
2022/04/07 06:20:29;;;;;;;13.62;5.40;;;;;;;12.23;49.05;98130.53;7710580;32;39336;-69
2022/04/07 06:24:45;;;;;;;11.27;5.35;;;;;;;12.12;49.77;98140.16;7710392;32;39849;-69
2022/04/07 06:29:01;;;;;;;16.95;6.00;;;;;;;11.92;48.63;98149.81;7710229;32;38563;-67
2022/04/07 06:33:17;;;;;;;7.72;4.68;;;;;;;12.29;48.95;98150.28;7720618;32;37290;-69
2022/04/07 06:37:52;;;;;;;13.73;4.87;;;;;;;12.27;49.79;98153.31;7735056;32;39323;-70
2022/04/07 06:42:08;;;;;;;10.90;5.35;;;;;;;12.22;50.96;98164.44;7716344;32;41129;-71
2022/04/07 06:46:24;;;;;;;14.98;5.37;;;;;;;12.11;51.55;98155.75;7709807;32;37469;-71
2022/04/07 06:50:41;;;;;;;11.55;6.00;;;;;;;12.24;50.66;98166.84;7710314;32;37151;-70
2022/04/07 06:54:57;;;;;;;10.75;6.32;;;;;;;12.26;51.60;98175.50;7709744;32;40053;-73
2022/04/07 06:59:13;;;;;;;12.90;6.05;;;;;;;11.88;52.20;98182.38;7710669;32;40012;-74
2022/04/07 07:03:29;;;;;;;12.00;6.12;;;;;;;12.10;51.75;98167.78;7710261;32;37809;-73
2022/04/07 07:07:45;;;;;;;13.50;5.55;;;;;;;12.22;51.75;98180.81;7710866;32;38401;-73
2022/04/07 07:12:08;;;;;;;9.10;4.87;;;;;;;12.25;52.18;98180.19;7727454;32;40187;-73
2022/04/07 07:16:26;;;;;;;8.77;5.30;;;;;;;12.63;49.04;98182.22;7732439;32;40007;-73
2022/04/07 07:20:43;;;;;;;13.27;6.90;;;;;;;12.63;50.50;98190.44;7711577;32;37995;-72
2022/04/07 07:24:59;;;;;;;9.88;6.25;;;;;;;12.68;50.13;98186.72;7711389;32;37020;-72
2022/04/07 07:29:16;;;;;;;9.23;5.72;;;;;;;12.91;49.43;98190.84;7711471;32;40098;-72
2022/04/07 07:33:32;;;;;;;10.80;5.90;;;;;;;12.84;49.63;98184.28;7713264;32;39831;-72
2022/04/07 07:37:53;;;;;;;14.48;6.25;;;;;;;13.27;51.88;98186.06;7737643;32;38373;-73
2022/04/07 07:42:09;;;;;;;10.32;5.90;;;;;;;13.34;48.71;98189.91;7737450;32;37928;-73
2022/04/07 07:46:33;;;;;;;13.13;7.10;;;;;;;13.41;47.97;98194.06;7737521;32;39348;-74
2022/04/07 07:50:50;;;;;;;12.00;6.68;;;;;;;13.84;47.56;98193.81;7736804;32;40250;-74
2022/04/07 07:55:06;;;;;;;16.48;6.50;;;;;;;13.77;46.98;98200.97;7727304;32;37795;-75
2022/04/07 07:59:23;;;;;;;16.10;6.93;;;;;;;14.15;46.22;98203.59;7707448;32;38225;-74
2022/04/07 08:03:39;;;;;;;12.93;7.18;;;;;;;14.39;45.78;98210.34;7708034;32;39474;-74
2022/04/07 08:07:56;;;;;;;14.15;9.18;;;;;;;14.52;45.16;98222.16;7707941;32;39932;-74
2022/04/07 08:12:12;;;;;;;20.60;9.82;;;;;;;14.16;46.03;98231.78;7705757;32;163927;-74
2022/04/07 08:16:30;;;;;;;19.50;10.85;;;;;;;14.35;45.90;98223.09;7711951;32;38300;-75
2022/04/07 08:20:46;;;;;;;20.80;12.27;;;;;;;14.17;46.24;98230.66;7710703;32;38674;-75
2022/04/07 08:25:03;;;;;;;19.50;11.73;;;;;;;14.33;44.91;98247.31;7711687;32;40511;-74
2022/04/07 08:29:19;;;;;;;19.80;10.23;;;;;;;14.32;45.75;98241.03;7711734;32;38004;-74
2022/04/07 08:33:35;;;;;;;15.90;8.38;;;;;;;14.07;45.92;98248.31;7712290;32;37208;-73
2022/04/07 08:37:51;;;;;;;15.73;8.80;;;;;;;13.92;46.22;98244.22;7711399;32;39441;-74
2022/04/07 08:42:07;;;;;;;14.35;8.65;;;;;;;13.99;45.73;98239.00;7711384;32;39888;-73
2022/04/07 08:46:23;;;;;;;18.42;10.07;;;;;;;14.22;45.87;98247.72;7710026;32;37860;-73
2022/04/07 08:50:41;;;;;;;17.10;9.85;;;;;;;14.13;46.34;98243.44;7711132;32;37774;-74
2022/04/07 08:54:58;;;;;;;18.98;10.20;;;;;;;14.26;46.04;98234.97;7711270;32;38248;-73
2022/04/07 08:59:14;;;;;;;15.45;9.15;;;;;;;14.23;45.47;98240.31;7711302;32;41256;-73
2022/04/07 09:03:31;;;;;;;13.73;7.72;;;;;;;14.16;45.36;98238.09;7711336;32;38758;-72
2022/04/07 09:07:47;;;;;;;14.38;8.00;;;;;;;14.50;44.70;98246.38;7711533;32;37127;-73
2022/04/07 09:12:04;;;;;;;13.18;7.28;;;;;;;14.39;45.53;98229.53;7717632;32;39000;-72
2022/04/07 09:16:20;;;;;;;15.43;7.25;;;;;;;13.92;46.06;98240.66;7738095;32;40592;-72
2022/04/07 09:20:43;;;;;;;16.45;9.57;;;;;;;14.43;45.39;98234.00;7715661;32;38010;-73
2022/04/07 09:25:06;;;;;;;20.37;9.27;;;;;;;14.51;45.21;98235.09;7711281;32;37534;-73
2022/04/07 09:29:22;;;;;;;29.12;15.07;;;;;;;14.24;45.45;98233.69;7711241;32;40266;-72
2022/04/07 09:33:38;;;;;;;17.85;9.80;;;;;;;14.16;45.72;98232.63;7713596;32;40198;-74
2022/04/07 09:38:00;;;;;;;14.95;9.23;;;;;;;14.44;45.34;98240.31;7711040;32;38756;-73
2022/04/07 09:42:23;;;;;;;16.73;9.13;;;;;;;14.32;45.12;98243.00;7709829;32;37251;-73
2022/04/07 09:46:39;;;;;;;16.17;9.38;;;;;;;14.40;46.43;98239.34;7711123;32;39441;-74
2022/04/07 09:51:07;;;;;;;13.60;7.30;;;;;;;14.66;47.71;98228.22;7710926;32;40185;-72
2022/04/07 09:55:29;;;;;;;10.60;6.93;;;;;;;14.73;48.38;98216.66;7710894;32;37902;-74
2022/04/07 09:59:46;;;;;;;17.25;7.12;;;;;;;14.91;45.57;98218.09;7710844;32;38156;-73
2022/04/07 10:04:05;;;;;;;14.48;7.85;;;;;;;15.01;45.13;98212.19;7709505;32;39980;-73
2022/04/07 10:08:22;;;;;;;17.95;7.57;;;;;;;15.00;45.33;98207.84;7709592;32;40812;-74
2022/04/07 10:12:39;;;;;;;13.05;6.93;;;;;;;14.86;46.09;98203.81;7709916;32;37630;-73
2022/04/07 10:16:55;;;;;;;10.05;5.80;;;;;;;15.34;43.83;98197.59;7710601;32;37200;-74
2022/04/07 10:21:36;;;;;;;13.85;6.15;;;;;;;15.70;43.47;98181.47;7710663;32;39477;-73
2022/04/07 10:25:53;;;;;;;16.85;7.18;;;;;;;15.81;41.06;98168.09;7710298;32;39874;-72
2022/04/07 10:30:16;;;;;;;16.35;7.93;;;;;;;15.71;42.36;98161.06;7708944;32;38593;-72
2022/04/07 10:34:32;;;;;;;;;;;;;;;15.28;43.07;98157.81;7720755;32;37773;-72
2022/04/07 10:38:53;;;;;;;13.65;6.20;;;;;;;15.60;41.90;98160.75;7737201;32;40493;-73
2022/04/07 10:43:18;;;;;;;9.55;4.95;;;;;;;15.18;41.03;98150.81;7736798;32;39871;-74
2022/04/07 10:47:39;;;;;;;10.07;5.30;;;;;;;15.54;39.94;98137.44;7736609;32;38745;-73
2022/04/07 10:51:57;;;;;;;11.52;5.00;;;;;;;16.37;39.58;98120.59;7735517;32;37396;-73
2022/04/07 10:56:31;;;;;;;11.77;5.82;;;;;;;16.52;38.44;98117.09;7736684;32;39400;-74
2022/04/07 11:00:48;;;;;;;13.45;5.60;;;;;;;16.96;37.95;98114.34;7736512;32;40095;-73
2022/04/07 11:05:10;;;;;;;13.43;5.05;;;;;;;17.65;36.30;98101.00;7721805;32;38586;-74
2022/04/07 11:09:40;;;;;;;11.60;4.50;;;;;;;18.49;35.46;98087.75;7709439;32;37215;-74
2022/04/07 11:13:58;;;;;;;8.85;4.28;;;;;;;18.50;34.54;98085.78;7728518;32;39343;-74
2022/04/07 11:19:00;;;;;;;11.57;4.78;;;;;;;18.39;34.35;98093.88;7734814;32;40017;-73
2022/04/07 11:23:36;;;;;;;8.10;3.92;;;;;;;18.50;32.53;98096.81;7717966;32;39029;-74
2022/04/07 11:28:13;;;;;;;14.18;3.92;;;;;;;18.95;30.99;98070.41;7735998;32;36795;-73
2022/04/07 11:32:29;;;;;;;8.52;4.05;;;;;;;19.50;31.20;98068.09;7735707;32;40047;-74
2022/04/07 11:36:47;;;;;;;8.50;4.20;;;;;;;20.45;28.72;98055.06;7710098;32;39879;-74
2022/04/07 11:41:05;;;;;;;13.60;4.57;;;;;;;20.96;28.58;98047.25;7716226;32;37875;-74
2022/04/07 11:45:29;;;;;;;8.77;4.05;;;;;;;20.68;29.20;98039.47;7711986;32;37090;-74
2022/04/07 11:49:47;;;;;;;9.90;4.20;;;;;;;21.50;28.10;98029.00;7712604;32;39455;-73
2022/04/07 11:54:04;;;;;;;6.70;4.00;;;;;;;22.08;27.35;98018.97;7712461;32;40007;-74
2022/04/07 11:58:20;;;;;;;13.15;4.22;;;;;;;21.75;27.29;98029.16;7712309;32;39059;-74
2022/04/07 12:02:36;;;;;;;9.90;4.10;;;;;;;21.68;27.92;98018.03;7712413;32;37359;-74
2022/04/07 12:06:52;;;;;;;7.28;3.78;;;;;;;22.26;27.26;98010.66;7734064;32;38977;-75
2022/04/07 12:11:09;;;;;;;6.82;3.78;;;;;;;22.41;26.95;98007.97;7703651;32;39929;-73
2022/04/07 12:15:25;;;;;;;10.07;3.97;;;;;;;22.13;26.79;97999.16;7710823;32;38602;-75
2022/04/07 12:19:45;;;;;;;6.65;3.58;;;;;;;22.86;26.95;98000.03;7711048;32;37614;-74
2022/04/07 12:24:11;;;;;;;6.68;4.00;;;;;;;22.83;26.39;97996.06;7712163;32;39302;-76
2022/04/07 12:28:38;;;;;;;5.47;3.45;;;;;;;23.76;25.45;97988.72;7711944;32;39955;-75
2022/04/07 12:32:54;;;;;;;6.18;3.22;;;;;;;23.55;25.63;97976.50;7712035;32;38537;-73
2022/04/07 12:37:10;;;;;;;5.32;3.35;;;;;;;22.83;26.04;97984.94;7711755;32;37612;-75
2022/04/07 12:41:54;;;;;;;5.22;2.90;;;;;;;23.78;25.99;97964.06;7711565;32;38958;-74
2022/04/07 12:46:10;;;;;;;;;;;;;;;24.18;25.36;97953.53;7710880;32;40888;-74
2022/04/07 12:50:27;;;;;;;5.20;2.90;;;;;;;23.91;24.54;97942.19;7710163;32;37838;-75
2022/04/07 12:55:07;;;;;;;5.57;2.72;;;;;;;22.37;27.50;97946.88;7710128;32;37837;-75
2022/04/07 12:59:23;;;;;;;6.15;3.15;;;;;;;23.14;28.22;97943.66;7711764;32;39274;-76
2022/04/07 13:03:52;;;;;;;5.95;3.05;;;;;;;22.80;28.47;97951.63;7711750;32;41563;-79
2022/04/07 13:08:09;;;;;;;5.30;3.10;;;;;;;22.52;28.20;97955.22;7711563;32;38628;-75
2022/04/07 13:12:26;;;;;;;7.60;3.72;;;;;;;21.35;30.72;97958.00;7711396;32;37099;-76
2022/04/07 13:16:42;;;;;;;9.45;4.32;;;;;;;22.64;30.78;97952.81;7711489;32;39256;-76
2022/04/07 13:20:58;;;;;;;7.97;4.15;;;;;;;23.14;30.33;97940.09;7711433;32;40856;-76
2022/04/07 13:25:14;;;;;;;8.70;4.00;;;;;;;23.47;28.38;97943.56;7711339;32;37616;-76
2022/04/07 13:29:31;;;;;;;10.73;3.33;;;;;;;23.45;27.21;97935.63;7711460;32;37633;-75
2022/04/07 13:33:48;;;;;;;8.75;3.37;;;;;;;23.19;28.36;97934.91;7711328;32;39444;-76
2022/04/07 13:38:05;;;;;;;4.95;2.50;;;;;;;23.97;28.69;97921.06;7711185;32;40866;-75
2022/04/07 13:42:21;;;;;;;3.15;2.05;;;;;;;24.09;27.31;97923.38;7711038;32;38681;-74
2022/04/07 13:46:37;;;;;;;2.78;2.03;;;;;;;22.98;29.22;97926.59;7709911;32;37232;-76
2022/04/07 13:50:54;;;;;;;4.00;2.37;;;;;;;22.04;30.13;97915.50;7711134;32;40114;-76
2022/04/07 13:55:10;;;;;;;7.95;2.72;;;;;;;22.07;30.07;97900.81;7711890;32;39959;-75
2022/04/07 13:59:26;;;;;;;7.28;2.97;;;;;;;22.64;30.40;97888.94;7698170;32;37598;-74
2022/04/07 14:03:42;;;;;;;7.90;3.05;;;;;;;23.45;29.43;97874.44;7683316;32;37069;-76
2022/04/07 14:07:58;;;;;;;3.15;1.90;;;;;;;24.12;26.86;97866.13;7683067;32;40644;-76
2022/04/07 14:12:15;;;;;;;6.20;2.20;;;;;;;24.15;26.55;97868.09;7683551;32;39646;-76
2022/04/07 14:16:33;;;;;;;3.70;1.80;;;;;;;24.64;25.80;97852.16;7683668;32;39100;-75
2022/04/07 14:20:50;;;;;;;3.08;1.60;;;;;;;24.45;26.46;97844.34;7682739;32;37168;-76
2022/04/07 14:25:06;;;;;;;1.77;1.40;;;;;;;24.90;26.22;97847.88;7683419;32;39480;-76
2022/04/07 14:29:22;;;;;;;2.00;1.73;;;;;;;25.79;24.83;97842.38;7683223;32;39695;-75
2022/04/07 14:33:39;;;;;;;2.58;1.30;;;;;;;25.55;24.34;97835.19;7683195;32;38006;-76
2022/04/07 14:37:58;;;;;;;1.83;1.45;;;;;;;25.10;24.12;97834.13;7683091;32;37843;-76
2022/04/07 14:42:14;;;;;;;3.90;2.15;;;;;;;24.90;23.70;97825.59;7683262;32;40487;-75
2022/04/07 14:46:30;;;;;;;2.05;1.25;;;;;;;24.99;23.94;97813.16;7683326;32;39911;-76
2022/04/07 14:50:47;;;;;;;2.47;1.17;;;;;;;24.97;24.13;97810.78;7682560;32;38394;-75
2022/04/07 14:55:04;;;;;;;3.12;1.40;;;;;;;25.04;24.22;97807.94;7681762;32;37751;-77
2022/04/07 14:59:21;;;;;;;1.52;0.65;;;;;;;25.31;23.18;97815.56;7682522;32;39545;-75
2022/04/07 15:03:37;;;;;;;1.73;1.00;;;;;;;24.08;25.09;97826.41;7681489;32;39953;-76
2022/04/07 15:07:53;;;;;;;0.55;0.40;;;;;;;24.03;25.08;97841.53;7694046;32;38858;-75
2022/04/07 15:12:09;;;;;;;1.77;0.80;;;;;;;23.57;25.27;97843.37;7681849;32;37289;-77
2022/04/07 15:16:25;;;;;;;1.23;0.93;;;;;;;23.15;25.37;97842.41;7682688;32;39450;-76
2022/04/07 15:20:43;;;;;;;3.35;1.00;;;;;;;22.68;26.48;97838.97;7685367;32;39427;-75
2022/04/07 15:24:58;;;;;;;1.98;0.60;;;;;;;22.10;26.93;97841.00;7685750;32;37949;-74
2022/04/07 15:29:16;;;;;;;2.87;0.85;;;;;;;22.14;27.48;97844.53;7685480;32;37919;-74
2022/04/07 15:33:34;;;;;;;0.98;0.80;;;;;;;22.03;27.09;97838.22;7685642;32;39517;-74
2022/04/07 15:37:53;;;;;;;0.55;0.55;;;;;;;22.20;27.11;97844.97;7685718;32;39500;-75
2022/04/07 15:42:09;;;;;;;1.80;0.70;;;;;;;21.74;27.11;97846.50;7684649;32;37168;-74
2022/04/07 15:46:25;;;;;;;1.23;0.70;;;;;;;21.06;27.97;97852.63;7684883;32;36974;-75
2022/04/07 15:50:42;;;;;;;0.90;0.65;;;;;;;21.82;26.89;97841.75;7684800;32;38980;-74
2022/04/07 15:54:58;;;;;;;1.62;0.75;;;;;;;22.04;25.96;97835.06;7685344;32;40018;-74
2022/04/07 15:59:14;;;;;;;1.35;0.90;;;;;;;21.97;25.77;97823.94;7685325;32;38654;-74
2022/04/07 16:03:30;;;;;;;0.95;0.80;;;;;;;22.05;26.19;97813.63;7685551;32;37785;-75
2022/04/07 16:07:46;;;;;;;2.05;1.12;;;;;;;22.88;26.29;97797.63;7685596;32;39322;-74
2022/04/07 16:12:03;;;;;;;1.77;1.05;;;;;;;23.06;25.36;97786.50;7685523;32;40681;-76
2022/04/07 16:16:19;;;;;;;1.25;1.00;;;;;;;22.67;25.54;97804.06;7684410;32;38762;-76
2022/04/07 16:20:35;;;;;;;2.62;0.80;;;;;;;22.67;26.02;97802.06;7685533;32;37060;-77
2022/04/07 16:24:51;;;;;;;2.65;1.52;;;;;;;22.56;25.40;97797.72;7685572;32;39438;-77
2022/04/07 16:29:07;;;;;;;1.20;1.10;;;;;;;21.62;26.65;97794.97;7685083;32;40830;-76
2022/04/07 16:33:25;;;;;;;1.52;1.02;;;;;;;22.19;25.52;97798.97;7684980;32;38638;-75
2022/04/07 16:37:41;;;;;;;0.73;0.73;;;;;;;21.67;25.91;97800.13;7685369;32;37926;-74
2022/04/07 16:41:57;;;;;;;8.35;2.53;;;;;;;21.55;26.53;97798.53;7685567;32;38536;-74
2022/04/07 16:46:13;;;;;;;32.25;10.27;;;;;;;21.14;26.78;97800.78;7684865;32;40070;-74
2022/04/07 16:50:30;;;;;;;1.60;1.40;;;;;;;21.17;26.91;97800.78;7684592;32;38733;-74
2022/04/07 16:54:46;;;;;;;2.65;0.90;;;;;;;20.38;28.09;97800.38;7683645;32;36655;-73
2022/04/07 16:59:02;;;;;;;4.53;1.45;;;;;;;20.39;27.96;97801.97;7684920;32;40090;-74
2022/04/07 17:03:19;;;;;;;3.33;1.20;;;;;;;20.54;27.87;97805.66;7684871;32;40710;-73
2022/04/07 17:07:35;;;;;;;2.65;0.98;;;;;;;19.94;28.74;97803.22;7684806;32;38093;-73
2022/04/07 17:12:03;;;;;;;1.73;1.40;;;;;;;20.00;28.54;97813.56;7684579;32;37964;-74
2022/04/07 17:16:20;;;;;;;1.95;1.20;;;;;;;19.49;29.46;97812.28;7684722;32;40041;-74
2022/04/07 17:20:39;;;;;;;3.92;1.37;;;;;;;19.51;29.40;97820.19;7684627;32;41208;-73
2022/04/07 17:24:55;;;;;;;3.33;1.60;;;;;;;19.47;29.84;97809.12;7684574;32;37799;-74
2022/04/07 17:29:13;;;;;;;11.75;4.90;;;;;;;19.44;30.44;97807.09;7684406;32;36234;-74
2022/04/07 17:33:29;;;;;;;9.43;3.28;;;;;;;19.46;29.31;97815.81;7684629;32;39409;-73
2022/04/07 17:37:46;;;;;;;4.22;2.55;;;;;;;19.38;29.90;97811.38;7684609;32;40774;-73
2022/04/07 17:42:05;;;;;;;11.23;5.60;;;;;;;19.50;29.12;97824.13;7683829;32;37751;-73
2022/04/07 17:46:22;;;;;;;5.57;3.00;;;;;;;19.39;29.47;97817.72;7683375;32;37184;-73
2022/04/07 17:50:38;;;;;;;4.72;2.50;;;;;;;19.08;30.81;97820.50;7684501;32;39315;-73
2022/04/07 17:54:54;;;;;;;2.85;1.85;;;;;;;19.01;30.72;97809.38;7684518;32;40650;-73
2022/04/07 17:59:11;;;;;;;5.43;1.58;;;;;;;18.70;31.40;97822.38;7684258;32;38073;-74
2022/04/07 18:03:27;;;;;;;5.62;1.10;;;;;;;18.79;31.13;97824.06;7684298;32;38031;-73
2022/04/07 18:07:43;;;;;;;3.78;1.10;;;;;;;18.62;31.37;97831.72;7684168;32;39581;-74
2022/04/07 18:12:00;;;;;;;2.08;1.12;;;;;;;18.60;31.79;97836.81;7683977;32;40006;-73
2022/04/07 18:16:16;;;;;;;4.72;1.95;;;;;;;18.35;32.81;97845.53;7683986;32;37925;-74
2022/04/07 18:20:33;;;;;;;4.30;2.00;;;;;;;18.18;33.39;97851.56;7684058;32;37328;-74
2022/04/07 18:24:49;;;;;;;6.82;2.20;;;;;;;18.13;33.46;97849.13;7695512;32;40375;-74
2022/04/07 18:29:05;;;;;;;4.28;2.12;;;;;;;17.94;34.03;97869.28;7683584;32;39882;-72
2022/04/07 18:33:21;;;;;;;4.55;1.70;;;;;;;17.75;34.96;97868.16;7682381;32;37997;-75
2022/04/07 18:37:39;;;;;;;8.68;2.30;;;;;;;17.67;35.87;97860.91;7683538;32;37724;-74
2022/04/07 18:41:56;;;;;;;3.70;2.17;;;;;;;17.33;36.57;97860.66;7683253;32;39409;-73
2022/04/07 18:46:12;;;;;;;4.15;1.80;;;;;;;17.47;35.30;97862.88;7683040;32;40810;-73
2022/04/07 18:50:31;;;;;;;2.45;1.58;;;;;;;17.18;36.36;97872.56;7683094;32;38682;-74
2022/04/07 18:54:47;;;;;;;2.35;1.37;;;;;;;17.13;36.22;97879.16;7686287;32;36508;-74
2022/04/07 18:59:03;;;;;;;4.43;2.00;;;;;;;17.19;36.37;97882.41;7701621;32;40382;-74
2022/04/07 19:03:19;;;;;;;5.20;2.53;;;;;;;17.05;36.21;97891.16;7739640;32;40920;-74
2022/04/07 19:07:36;;;;;;;6.85;3.03;;;;;;;16.91;37.75;97882.63;7713763;32;37980;-74
2022/04/07 19:11:54;;;;;;;6.28;3.05;;;;;;;16.86;38.04;97889.97;7712598;32;38058;-74
2022/04/07 19:16:11;;;;;;;6.50;3.10;;;;;;;16.82;38.34;97899.31;7726046;32;40234;-74
2022/04/07 19:20:27;;;;;;;6.80;3.25;;;;;;;16.69;39.07;97907.69;7739557;32;40962;-74
2022/04/07 19:24:43;;;;;;;7.57;2.65;;;;;;;16.37;38.97;97901.44;7739351;32;37771;-74
2022/04/07 19:28:59;;;;;;;10.00;3.62;;;;;;;16.53;38.99;97896.69;7736813;32;38086;-73
2022/04/07 19:33:15;;;;;;;8.70;3.80;;;;;;;16.40;40.21;97914.47;7705752;32;40072;-73
2022/04/07 19:37:31;;;;;;;9.35;3.22;;;;;;;16.10;41.45;97903.91;7699146;32;40178;-74
2022/04/07 19:41:47;;;;;;;7.45;3.55;;;;;;;16.11;41.59;97883.53;7697728;32;37699;-72
2022/04/07 19:46:04;;;;;;;8.48;3.87;;;;;;;16.34;40.88;97866.37;7696630;32;37072;-71
2022/04/07 19:50:20;;;;;;;9.68;3.92;;;;;;;16.52;40.46;97864.84;7699337;32;39284;-71
2022/04/07 19:54:37;;;;;;;8.65;3.35;;;;;;;16.25;41.09;97871.28;7697257;32;40583;-74
2022/04/07 19:58:53;;;;;;;5.20;2.90;;;;;;;15.89;40.79;97868.44;7694786;32;38560;-73
2022/04/07 20:03:09;;;;;;;6.10;2.90;;;;;;;16.19;39.59;97869.94;7696999;32;37501;-73
2022/04/07 20:07:25;;;;;;;5.45;2.40;;;;;;;16.38;39.98;97869.22;7698256;32;39321;-73
2022/04/07 20:11:41;;;;;;;7.07;2.60;;;;;;;16.41;38.62;97868.50;7698004;32;39918;-73